createdAt,value
2018-07-14T00:01:42.922Z,5.75
2018-07-14T00:04:12.460Z,5.40
2018-07-14T00:06:42.507Z,5.93
2018-07-14T00:09:13.472Z,5.20
2018-07-14T00:11:43.282Z,5.03
2018-07-14T00:14:13.965Z,5.00
2018-07-14T00:16:43.803Z,4.92
2018-07-14T00:19:14.391Z,5.37
2018-07-14T00:21:44.041Z,4.90
2018-07-14T00:24:13.144Z,5.22
2018-07-14T00:26:42.173Z,4.60
2018-07-14T00:29:12.382Z,6.10
2018-07-14T00:31:43.057Z,5.30
2018-07-14T00:34:12.219Z,5.50
2018-07-14T00:36:42.886Z,5.50
2018-07-14T00:52:06.917Z,5.80
2018-07-14T00:54:36.290Z,5.50
2018-07-14T00:57:06.975Z,5.63
2018-07-14T00:59:37.618Z,5.47
2018-07-14T01:02:08.507Z,5.47
2018-07-14T01:04:37.874Z,5.40
2018-07-14T01:07:07.180Z,5.47
2018-07-14T01:09:37.785Z,5.70
2018-07-14T01:12:07.840Z,5.30
2018-07-14T01:14:38.494Z,5.47
2018-07-14T01:17:08.524Z,5.60
2018-07-14T01:19:39.552Z,6.03
2018-07-14T01:22:10.625Z,5.40
2018-07-14T01:24:39.869Z,5.55
2018-07-14T01:27:10.238Z,5.10
2018-07-14T01:29:41.125Z,5.17
2018-07-14T01:32:11.586Z,5.07
2018-07-14T01:34:40.780Z,5.20
2018-07-14T01:37:11.445Z,5.95
2018-07-14T01:39:40.997Z,5.97
2018-07-14T01:42:10.070Z,5.43
2018-07-14T01:44:39.963Z,5.80
2018-07-14T01:47:09.335Z,6.07
2018-07-14T01:49:40.640Z,5.40
2018-07-14T01:52:11.275Z,5.60
2018-07-14T01:54:40.467Z,5.50
2018-07-14T01:57:10.604Z,5.43
2018-07-14T01:59:40.892Z,5.93
2018-07-14T02:02:11.812Z,6.20
2018-07-14T02:04:42.287Z,5.53
2018-07-14T02:07:12.657Z,5.80
2018-07-14T02:09:42.455Z,5.80
2018-07-14T02:12:11.511Z,5.30
2018-07-14T02:14:41.267Z,5.80
2018-07-14T02:17:10.520Z,5.80
2018-07-14T02:19:41.311Z,5.30
2018-07-14T02:22:11.898Z,5.30
2018-07-14T02:24:44.893Z,5.77
2018-07-14T02:27:13.958Z,5.90
2018-07-14T02:29:44.126Z,6.47
2018-07-14T02:32:14.623Z,5.07
2018-07-14T02:34:44.976Z,5.70
2018-07-14T02:37:14.035Z,5.78
2018-07-14T02:39:43.626Z,6.10
2018-07-14T02:42:12.873Z,6.00
2018-07-14T02:44:42.876Z,5.70
2018-07-14T02:47:12.591Z,6.30
2018-07-14T02:49:41.893Z,6.23
2018-07-14T02:52:11.949Z,5.50
2018-07-14T02:54:42.590Z,5.77
2018-07-14T02:57:12.112Z,6.60
2018-07-14T02:59:42.354Z,6.03
2018-07-14T03:02:11.376Z,6.10
2018-07-14T03:04:41.522Z,6.43
2018-07-14T03:07:11.349Z,6.13
2018-07-14T03:09:40.440Z,5.80
2018-07-14T03:12:09.530Z,7.13
2018-07-14T03:14:40.611Z,5.90
2018-07-14T03:17:10.663Z,6.00
2018-07-14T03:19:41.077Z,6.40
2018-07-14T03:22:10.596Z,5.90
2018-07-14T03:24:40.941Z,5.83
2018-07-14T03:27:11.300Z,5.93
2018-07-14T03:29:41.966Z,6.10
2018-07-14T03:32:12.329Z,6.20
2018-07-14T03:34:43.483Z,5.90
2018-07-14T03:37:13.000Z,5.87
2018-07-14T03:39:43.713Z,5.80
2018-07-14T03:42:14.348Z,6.62
2018-07-14T03:44:45.181Z,6.40
2018-07-14T03:47:16.159Z,6.15
2018-07-14T03:49:45.229Z,6.07
2018-07-14T03:52:14.549Z,6.25
2018-07-14T03:54:44.706Z,6.10
2018-07-14T03:57:15.436Z,6.17
2018-07-14T03:59:44.876Z,5.20
2018-07-14T04:02:15.225Z,5.92
2018-07-14T04:04:45.557Z,6.53
2018-07-14T04:07:16.524Z,6.07
2018-07-14T04:09:47.241Z,6.43
2018-07-14T04:12:16.519Z,6.33
2018-07-14T04:14:47.648Z,6.57
2018-07-14T04:17:16.914Z,6.55
2018-07-14T04:19:45.937Z,6.40
2018-07-14T04:22:15.221Z,7.00
2018-07-14T04:24:45.620Z,7.67
2018-07-14T04:27:16.537Z,7.67
2018-07-14T04:29:47.160Z,7.20
2018-07-14T04:32:17.451Z,7.95
2018-07-14T04:34:47.988Z,6.75
2018-07-14T04:37:18.849Z,6.30
2018-07-14T04:39:48.213Z,6.90
2018-07-14T04:42:18.701Z,6.40
2018-07-14T04:44:49.497Z,6.87
2018-07-14T04:47:20.244Z,7.00
2018-07-14T04:49:49.515Z,6.60
2018-07-14T04:52:19.559Z,6.53
2018-07-14T04:54:48.643Z,6.85
2018-07-14T04:57:18.036Z,7.40
2018-07-14T04:59:47.354Z,7.90
2018-07-14T05:02:16.401Z,8.33
2018-07-14T05:05:16.907Z,8.13
2018-07-14T05:07:47.542Z,8.87
2018-07-14T05:10:18.292Z,9.07
2018-07-14T05:12:49.234Z,7.80
2018-07-14T05:15:19.966Z,8.10
2018-07-14T05:17:51.488Z,8.90
2018-07-14T05:20:21.215Z,8.35
2018-07-14T05:22:50.517Z,8.13
2018-07-14T05:25:19.716Z,8.57
2018-07-14T05:27:50.083Z,8.35
2018-07-14T05:30:20.239Z,8.23
2018-07-14T05:32:49.865Z,8.93
2018-07-14T05:35:20.644Z,8.40
2018-07-14T05:37:50.694Z,8.68
2018-07-14T05:40:21.218Z,10.00
2018-07-14T05:42:51.964Z,8.50
2018-07-14T05:45:22.234Z,9.50
2018-07-14T05:47:53.227Z,9.88
2018-07-14T05:50:22.716Z,9.03
2018-07-14T05:52:52.916Z,9.28
2018-07-14T05:55:54.546Z,9.00
2018-07-14T05:58:23.844Z,9.45
2018-07-14T06:00:53.739Z,9.43
2018-07-14T06:03:24.443Z,9.23
2018-07-14T06:05:54.089Z,9.73
2018-07-14T06:08:24.268Z,9.57
2018-07-14T06:10:54.813Z,10.15
2018-07-14T06:13:25.846Z,10.23
2018-07-14T06:15:56.100Z,10.30
2018-07-14T06:18:25.230Z,9.50
2018-07-14T06:20:55.162Z,10.27
2018-07-14T06:23:25.071Z,10.53
2018-07-14T06:25:56.070Z,10.50
2018-07-14T06:28:25.510Z,10.68
2018-07-14T06:30:55.958Z,9.98
2018-07-14T06:33:26.209Z,10.60
2018-07-14T06:35:56.685Z,10.20
2018-07-14T06:38:27.100Z,11.07
2018-07-14T06:40:57.084Z,10.32
2018-07-14T06:43:26.340Z,11.40
2018-07-14T06:45:55.525Z,11.12
2018-07-14T06:48:25.791Z,10.00
2018-07-14T06:50:56.426Z,9.75
2018-07-14T06:53:25.725Z,11.10
2018-07-14T06:55:55.671Z,9.78
2018-07-14T06:58:25.149Z,9.50
2018-07-14T07:00:55.314Z,9.78
2018-07-14T07:03:24.431Z,9.83
2018-07-14T07:05:53.826Z,9.47
2018-07-14T07:08:23.372Z,9.40
2018-07-14T07:10:53.880Z,8.55
2018-07-14T07:13:23.422Z,9.20
2018-07-14T07:15:53.985Z,9.30
2018-07-14T07:18:23.050Z,9.13
2018-07-14T07:20:53.830Z,9.13
2018-07-14T07:23:24.913Z,8.97
2018-07-14T07:25:55.556Z,8.97
2018-07-14T07:28:24.584Z,8.83
2018-07-14T07:30:54.002Z,8.63
2018-07-14T07:33:23.578Z,7.60
2018-07-14T07:35:53.818Z,8.40
2018-07-14T07:38:23.139Z,7.57
2018-07-14T07:40:54.420Z,7.60
2018-07-14T07:43:24.907Z,7.60
2018-07-14T07:45:55.204Z,7.60
2018-07-14T07:48:24.681Z,7.43
2018-07-14T07:50:53.750Z,7.55
2018-07-14T07:53:23.888Z,7.43
2018-07-14T07:55:55.468Z,7.90
2018-07-14T07:58:24.587Z,7.35
2018-07-14T08:00:54.753Z,6.75
2018-07-14T08:03:23.819Z,5.80
2018-07-14T08:05:54.389Z,6.70
2018-07-14T08:08:23.978Z,6.53
2018-07-14T08:10:53.097Z,6.47
2018-07-14T08:13:23.021Z,6.55
2018-07-14T08:15:52.256Z,5.83
2018-07-14T08:18:21.587Z,4.78
2018-07-14T08:20:51.611Z,5.73
2018-07-14T08:23:22.581Z,5.25
2018-07-14T08:25:51.789Z,4.43
2018-07-14T08:28:22.081Z,4.87
2018-07-14T08:30:51.631Z,5.17
2018-07-14T08:33:22.283Z,4.70
2018-07-14T08:35:52.710Z,4.05
2018-07-14T08:38:22.569Z,3.93
2018-07-14T08:40:52.493Z,4.90
2018-07-14T08:43:21.552Z,4.53
2018-07-14T08:45:51.539Z,3.73
2018-07-14T08:48:22.285Z,3.58
2018-07-14T08:50:51.705Z,4.37
2018-07-14T08:53:21.185Z,3.70
2018-07-14T08:55:51.956Z,4.20
2018-07-14T08:58:26.097Z,3.95
2018-07-14T09:00:56.030Z,4.33
2018-07-14T09:03:27.084Z,4.10
2018-07-14T09:05:58.020Z,3.37
2018-07-14T09:08:29.342Z,4.20
2018-07-14T09:10:59.524Z,4.20
2018-07-14T09:13:30.278Z,3.90
2018-07-14T09:16:00.678Z,5.90
2018-07-14T09:18:31.115Z,4.80
2018-07-14T09:21:01.335Z,4.10
2018-07-14T09:23:32.019Z,3.40
2018-07-14T09:26:01.584Z,4.80
2018-07-14T09:28:31.977Z,3.97
2018-07-14T09:31:01.859Z,4.00
2018-07-14T09:33:32.223Z,3.90
2018-07-14T09:36:02.304Z,4.30
2018-07-14T09:38:32.822Z,4.37
2018-07-14T09:41:02.671Z,4.10
2018-07-14T09:43:33.142Z,4.30
2018-07-14T09:46:03.512Z,3.67
2018-07-14T09:48:34.518Z,3.30
2018-07-14T09:51:05.173Z,4.10
2018-07-14T09:53:35.756Z,3.50
2018-07-14T09:56:05.949Z,3.53
2018-07-14T09:58:36.161Z,3.80
2018-07-14T10:01:10.880Z,3.23
2018-07-14T10:03:41.470Z,3.50
2018-07-14T10:06:10.827Z,3.40
2018-07-14T10:08:41.289Z,4.30
2018-07-14T10:11:11.855Z,3.40
2018-07-14T10:13:42.055Z,3.17
2018-07-14T10:16:12.296Z,3.00
2018-07-14T10:18:43.021Z,3.13
2018-07-14T10:21:13.379Z,3.30
2018-07-14T10:23:44.701Z,3.50
2018-07-14T10:26:14.592Z,3.63
2018-07-14T10:28:45.199Z,3.47
2018-07-14T10:31:15.814Z,2.90
2018-07-14T10:33:46.521Z,2.87
2018-07-14T10:36:17.145Z,2.83
2018-07-14T10:38:47.618Z,2.87
2018-07-14T10:41:17.115Z,2.90
2018-07-14T10:43:46.275Z,2.70
2018-07-14T10:46:47.068Z,2.93
2018-07-14T10:49:17.873Z,2.80
2018-07-14T10:51:47.790Z,2.67
2018-07-14T10:54:18.757Z,2.70
2018-07-14T10:56:49.276Z,2.55
2018-07-14T10:59:18.488Z,2.50
2018-07-14T11:01:49.078Z,2.60
2018-07-14T11:04:18.902Z,2.67
2018-07-14T11:06:49.122Z,3.43
2018-07-14T11:09:19.326Z,3.20
2018-07-14T11:11:49.801Z,2.52
2018-07-14T11:14:20.175Z,2.80
2018-07-14T11:16:50.469Z,2.50
2018-07-14T11:19:21.829Z,2.42
2018-07-14T11:21:52.500Z,2.42
2018-07-14T11:24:23.006Z,2.90
2018-07-14T11:26:53.418Z,2.90
2018-07-14T11:29:24.067Z,2.60
2018-07-14T11:31:54.753Z,2.60
2018-07-14T11:34:23.808Z,2.85
2018-07-14T11:36:53.671Z,3.10
2018-07-14T11:39:24.147Z,2.80
2018-07-14T11:41:54.114Z,2.40
2018-07-14T11:44:24.056Z,2.60
2018-07-14T11:46:53.085Z,2.90
2018-07-14T11:49:23.219Z,2.70
2018-07-14T11:51:53.155Z,3.80
2018-07-14T11:54:23.697Z,3.10
2018-07-14T11:56:54.374Z,3.20
2018-07-14T11:59:24.920Z,2.80
2018-07-14T12:01:54.182Z,3.42
2018-07-14T12:04:23.837Z,3.70
2018-07-14T12:06:54.715Z,3.45
2018-07-14T12:09:23.938Z,3.03
2018-07-14T12:11:53.842Z,4.08
2018-07-14T12:14:24.205Z,4.17
2018-07-14T12:16:55.272Z,4.58
2018-07-14T12:19:25.548Z,4.50
2018-07-14T12:21:54.709Z,3.97
2018-07-14T12:24:24.246Z,4.23
2018-07-14T12:26:54.225Z,4.17
2018-07-14T12:29:23.902Z,4.77
2018-07-14T12:31:53.148Z,4.70
2018-07-14T12:34:23.664Z,4.03
2018-07-14T12:36:53.582Z,4.47
2018-07-14T12:39:23.683Z,4.83
2018-07-14T12:41:54.143Z,5.33
2018-07-14T12:44:23.900Z,4.73
2018-07-14T12:46:54.358Z,3.60
2018-07-14T12:49:24.504Z,4.10
2018-07-14T12:51:54.149Z,3.62
2018-07-14T12:54:23.203Z,4.30
2018-07-14T12:56:53.261Z,3.30
2018-07-14T12:59:23.162Z,3.80
2018-07-14T13:01:54.214Z,3.87
2018-07-14T13:04:23.290Z,3.70
2018-07-14T13:06:53.190Z,3.40
2018-07-14T13:09:23.583Z,3.20
2018-07-14T13:11:53.058Z,3.50
2018-07-14T13:14:22.828Z,2.87
2018-07-14T13:16:53.504Z,3.10
2018-07-14T13:19:22.985Z,2.53
2018-07-14T13:21:53.653Z,3.20
2018-07-14T13:24:24.128Z,3.00
2018-07-14T13:26:55.028Z,2.20
2018-07-14T13:29:25.420Z,2.50
2018-07-14T13:31:54.640Z,2.67
2018-07-14T13:34:23.731Z,2.27
2018-07-14T13:36:54.128Z,2.05
2018-07-14T13:39:25.135Z,2.30
2018-07-14T13:41:54.908Z,2.30
2018-07-14T13:44:26.278Z,2.00
2018-07-14T13:46:55.376Z,2.30
2018-07-14T13:49:25.891Z,2.40
2018-07-14T13:51:56.284Z,2.43
2018-07-14T13:54:25.489Z,2.20
2018-07-14T13:56:55.047Z,2.43
2018-07-14T13:59:24.901Z,2.45
2018-07-14T14:01:54.771Z,2.83
2018-07-14T14:04:23.831Z,2.37
2018-07-14T14:06:53.282Z,2.40
2018-07-14T14:09:23.160Z,2.43
2018-07-14T14:11:53.033Z,2.80
2018-07-14T14:14:22.144Z,2.65
2018-07-14T14:16:51.285Z,2.47
2018-07-14T14:19:21.021Z,2.30
2018-07-14T14:22:20.917Z,2.50
2018-07-14T14:24:50.529Z,2.37
2018-07-14T14:27:19.560Z,2.50
2018-07-14T14:29:49.216Z,2.33
2018-07-14T14:32:19.120Z,2.30
2018-07-14T14:34:48.614Z,2.27
2018-07-14T14:37:18.783Z,2.40
2018-07-14T14:39:48.039Z,2.47
2018-07-14T14:42:17.055Z,2.40
2018-07-14T14:44:46.941Z,2.37
2018-07-14T14:47:16.340Z,2.22
2018-07-14T14:49:45.396Z,2.25
2018-07-14T14:52:15.486Z,2.37
2018-07-14T14:54:45.484Z,2.83
2018-07-14T14:57:15.517Z,2.33
2018-07-14T14:59:45.069Z,2.40
2018-07-14T15:02:16.505Z,2.60
2018-07-14T15:04:46.521Z,2.10
2018-07-14T15:07:15.674Z,2.30
2018-07-14T15:09:45.920Z,2.06
2018-07-14T15:12:15.153Z,2.00
2018-07-14T15:14:45.019Z,2.15
2018-07-14T15:17:16.446Z,1.98
2018-07-14T15:19:46.554Z,2.15
2018-07-14T15:22:16.487Z,2.30
2018-07-14T15:24:46.543Z,2.13
2018-07-14T15:27:17.038Z,2.30
2018-07-14T15:29:46.657Z,2.00
2018-07-14T15:32:15.815Z,2.00
2018-07-14T15:34:45.193Z,1.98
2018-07-14T15:37:15.154Z,2.37
2018-07-14T15:39:44.198Z,2.47
2018-07-14T15:42:14.107Z,2.63
2018-07-14T15:44:44.060Z,2.40
2018-07-14T15:47:13.346Z,2.40
2018-07-14T15:49:43.330Z,2.27
2018-07-14T15:52:12.877Z,2.63
2018-07-14T15:54:42.784Z,2.33
2018-07-14T15:57:12.660Z,2.40
2018-07-14T15:59:41.711Z,2.73
2018-07-14T16:02:11.716Z,2.63
2018-07-14T16:04:41.609Z,2.73
2018-07-14T16:07:10.643Z,2.60
2018-07-14T16:09:39.823Z,2.40
2018-07-14T16:12:09.494Z,3.20
2018-07-14T16:14:38.532Z,3.33
2018-07-14T16:17:08.104Z,2.70
2018-07-14T16:19:37.618Z,2.63
2018-07-14T16:22:07.825Z,2.90
2018-07-14T16:24:36.856Z,2.93
2018-07-14T16:27:06.317Z,3.10
2018-07-14T16:29:36.178Z,2.90
2018-07-14T16:32:05.876Z,3.10
2018-07-14T16:34:35.805Z,3.00
2018-07-14T16:37:05.412Z,2.90
2018-07-14T16:39:34.451Z,3.10
2018-07-14T16:42:03.543Z,2.90
2018-07-14T16:44:33.364Z,2.80
2018-07-14T16:47:02.411Z,3.20
2018-07-14T16:49:32.212Z,3.00
2018-07-14T16:52:02.206Z,3.23
2018-07-14T16:54:31.711Z,2.95
2018-07-14T16:57:01.935Z,3.10
2018-07-14T16:59:31.011Z,2.90
2018-07-14T17:02:00.212Z,2.90
2018-07-14T17:05:00.107Z,2.95
2018-07-14T17:07:29.785Z,4.43
2018-07-14T17:09:59.745Z,3.77
2018-07-14T17:12:28.866Z,3.52
2018-07-14T17:14:57.926Z,3.90
2018-07-14T17:17:27.845Z,3.47
2018-07-14T17:19:57.109Z,3.20
2018-07-14T17:22:26.373Z,3.60
2018-07-14T17:24:56.160Z,3.60
2018-07-14T17:27:25.187Z,3.77
2018-07-14T17:29:54.334Z,3.30
2018-07-14T17:32:24.219Z,3.27
2018-07-14T17:34:53.257Z,3.77
2018-07-14T17:37:23.186Z,3.20
2018-07-14T17:39:53.082Z,3.07
2018-07-14T17:42:23.120Z,3.40
2018-07-14T17:44:52.723Z,3.67
2018-07-14T17:47:22.508Z,3.17
2018-07-14T17:49:52.620Z,3.17
2018-07-14T17:52:21.716Z,3.83
2018-07-14T17:54:51.056Z,3.00
2018-07-14T17:57:20.185Z,3.00
2018-07-14T17:59:49.301Z,3.37
2018-07-14T18:02:20.496Z,3.20
2018-07-14T18:04:51.238Z,3.60
2018-07-14T18:07:21.496Z,3.50
2018-07-14T18:09:53.087Z,3.30
2018-07-14T18:12:22.170Z,3.40
2018-07-14T18:14:52.125Z,3.60
2018-07-14T18:17:22.622Z,3.33
2018-07-14T18:19:51.868Z,3.33
2018-07-14T18:22:22.520Z,3.40
2018-07-14T18:24:52.602Z,3.70
2018-07-14T18:27:22.148Z,3.70
2018-07-14T18:29:53.646Z,3.97
2018-07-14T18:32:22.805Z,3.50
2018-07-14T18:34:53.635Z,3.70
2018-07-14T18:37:22.909Z,5.35
2018-07-14T18:39:52.834Z,3.80
2018-07-14T18:42:22.761Z,3.95
2018-07-14T18:44:52.976Z,3.90
2018-07-14T18:47:22.136Z,3.77
2018-07-14T18:49:52.066Z,3.40
2018-07-14T18:52:21.624Z,3.62
2018-07-14T18:54:52.483Z,3.53
2018-07-14T18:57:22.780Z,3.62
2018-07-14T18:59:52.650Z,3.80
2018-07-14T19:02:22.338Z,3.47
2018-07-14T19:04:52.324Z,3.33
2018-07-14T19:07:21.917Z,4.03
2018-07-14T19:09:52.549Z,3.73
2018-07-14T19:12:22.103Z,3.93
2018-07-14T19:14:52.867Z,4.00
2018-07-14T19:17:22.237Z,4.40
2018-07-14T19:19:53.247Z,4.00
2018-07-14T19:22:22.307Z,4.30
2018-07-14T19:24:52.435Z,4.05
2018-07-14T19:27:22.557Z,3.73
2018-07-14T19:29:53.169Z,4.22
2018-07-14T19:32:23.754Z,8.15
2018-07-14T19:34:55.766Z,7.03
2018-07-14T19:37:27.635Z,5.17
2018-07-14T19:39:58.224Z,6.22
2018-07-14T19:42:28.816Z,5.33
2018-07-14T19:44:58.144Z,5.97
2018-07-14T19:47:27.739Z,5.13
2018-07-14T19:49:57.200Z,6.20
2018-07-14T19:52:26.703Z,5.63
2018-07-14T19:54:57.021Z,5.40
2018-07-14T19:57:27.640Z,5.53
2018-07-14T19:59:58.016Z,6.15
2018-07-14T20:02:28.267Z,6.22
2018-07-14T20:04:57.468Z,7.00
2018-07-14T20:07:28.258Z,6.53
2018-07-14T20:09:58.463Z,6.77
2018-07-14T20:12:28.950Z,5.92
2018-07-14T20:14:58.938Z,6.30
2018-07-14T20:17:29.384Z,6.25
2018-07-14T20:19:59.447Z,5.28
2018-07-14T20:22:28.506Z,5.03
2018-07-14T20:24:57.959Z,5.35
2018-07-14T20:27:27.764Z,4.67
2018-07-14T20:29:58.313Z,4.62
2018-07-14T20:32:27.855Z,4.65
2018-07-14T20:34:57.295Z,5.00
2018-07-14T20:37:26.321Z,4.55
2018-07-14T20:39:55.525Z,5.58
2018-07-14T20:42:25.781Z,5.60
2018-07-14T20:44:56.060Z,6.40
2018-07-14T20:47:26.482Z,6.75
2018-07-14T20:49:56.832Z,6.30
2018-07-14T20:52:27.942Z,7.07
2018-07-14T20:54:58.421Z,6.55
2018-07-14T20:57:29.064Z,7.17
2018-07-14T20:59:58.972Z,8.10
2018-07-14T21:02:29.293Z,7.97
2018-07-14T21:05:00.062Z,7.65
2018-07-14T21:07:30.197Z,8.20
2018-07-14T21:10:01.039Z,8.30
2018-07-14T21:12:32.205Z,9.13
2018-07-14T21:15:02.527Z,8.15
2018-07-14T21:17:33.357Z,7.97
2018-07-14T21:20:03.694Z,7.50
2018-07-14T21:22:33.968Z,7.90
2018-07-14T21:25:04.236Z,6.97
2018-07-14T21:27:34.159Z,7.87
2018-07-14T21:30:03.372Z,8.00
2018-07-14T21:32:32.620Z,9.58
2018-07-14T21:35:01.807Z,8.77
2018-07-14T21:37:30.966Z,9.00
2018-07-14T21:40:01.618Z,10.63
2018-07-14T21:42:31.617Z,9.20
2018-07-14T21:45:02.062Z,8.83
2018-07-14T21:47:31.135Z,8.78
2018-07-14T21:50:01.749Z,9.07
2018-07-14T21:52:31.300Z,8.10
2018-07-14T21:55:01.913Z,9.50
2018-07-14T21:57:32.717Z,8.65
2018-07-14T22:00:03.161Z,7.53
2018-07-14T22:02:33.868Z,7.50
2018-07-14T22:05:04.161Z,8.00
2018-07-14T22:07:33.269Z,8.73
2018-07-14T22:10:04.139Z,10.00
2018-07-14T22:12:33.450Z,10.80
2018-07-14T22:15:03.039Z,9.13
2018-07-14T22:17:32.054Z,6.77
2018-07-14T22:20:01.186Z,6.50
2018-07-14T22:22:31.605Z,6.67
2018-07-14T22:25:00.990Z,7.10
2018-07-14T22:27:31.656Z,7.10
2018-07-14T22:30:00.893Z,6.60
2018-07-14T22:32:31.126Z,7.45
2018-07-14T22:35:00.509Z,8.23
2018-07-14T22:37:29.902Z,7.75
2018-07-14T22:39:59.243Z,8.10
2018-07-14T22:42:28.348Z,7.40
2018-07-14T22:44:57.444Z,8.73
2018-07-14T22:47:27.165Z,8.08
2018-07-14T22:49:56.502Z,9.13
2018-07-14T22:52:26.633Z,8.60
2018-07-14T22:54:55.926Z,8.30
2018-07-14T22:57:26.386Z,7.33
2018-07-14T22:59:55.770Z,7.80
2018-07-14T23:02:25.226Z,7.00
2018-07-14T23:04:54.508Z,8.37
2018-07-14T23:07:24.263Z,7.03
2018-07-14T23:09:53.413Z,7.70
2018-07-14T23:12:22.746Z,7.23
2018-07-14T23:14:51.829Z,6.97
2018-07-14T23:17:21.057Z,7.30
2018-07-14T23:19:50.373Z,7.70
2018-07-14T23:22:20.450Z,6.83
2018-07-14T23:24:50.925Z,7.47
2018-07-14T23:27:20.383Z,6.90
2018-07-14T23:29:50.300Z,7.87
2018-07-14T23:32:20.122Z,7.70
2018-07-14T23:34:50.417Z,8.10
2018-07-14T23:37:21.626Z,8.43
2018-07-14T23:39:52.026Z,8.47
2018-07-14T23:42:22.136Z,8.40
2018-07-14T23:44:52.947Z,8.20
2018-07-14T23:47:24.103Z,7.70
2018-07-14T23:49:54.806Z,8.20
2018-07-14T23:52:23.968Z,8.40
2018-07-14T23:54:54.857Z,8.43
2018-07-14T23:57:25.714Z,9.00
2018-07-14T23:59:56.155Z,9.78
